sensor_id;sensor_type;location;lat;lon;timestamp;temperature;humidity
22235;DHT22;11286;45.596;5.284;2023-02-01T00:02:23;7.70;99.90
22235;DHT22;11286;45.596;5.284;2023-02-01T00:04:49;7.60;99.90
22235;DHT22;11286;45.596;5.284;2023-02-01T00:07:14;7.40;99.90
22235;DHT22;11286;45.596;5.284;2023-02-01T00:09:40;7.40;99.90
22235;DHT22;11286;45.596;5.284;2023-02-01T00:12:06;7.40;99.90
22235;DHT22;11286;45.596;5.284;2023-02-01T00:14:31;7.20;99.90
22235;DHT22;11286;45.596;5.284;2023-02-01T00:17:04;7.20;99.90
22235;DHT22;11286;45.596;5.284;2023-02-01T00:19:30;7.30;99.90
22235;DHT22;11286;45.596;5.284;2023-02-01T00:21:55;7.40;99.90
22235;DHT22;11286;45.596;5.284;2023-02-01T00:24:21;7.30;99.90
22235;DHT22;11286;45.596;5.284;2023-02-01T00:26:47;7.50;99.90
22235;DHT22;11286;45.596;5.284;2023-02-01T00:29:18;7.50;99.90
22235;DHT22;11286;45.596;5.284;2023-02-01T00:31:45;7.40;99.90
22235;DHT22;11286;45.596;5.284;2023-02-01T00:34:15;7.30;99.90
22235;DHT22;11286;45.596;5.284;2023-02-01T00:36:42;7.40;99.90
22235;DHT22;11286;45.596;5.284;2023-02-01T00:39:09;7.30;99.90
22235;DHT22;11286;45.596;5.284;2023-02-01T00:41:34;7.40;99.90
22235;DHT22;11286;45.596;5.284;2023-02-01T00:44:01;7.60;99.90
22235;DHT22;11286;45.596;5.284;2023-02-01T00:46:27;7.60;99.90
22235;DHT22;11286;45.596;5.284;2023-02-01T00:48:53;7.50;99.90
22235;DHT22;11286;45.596;5.284;2023-02-01T00:51:21;7.50;99.90
22235;DHT22;11286;45.596;5.284;2023-02-01T00:53:47;7.40;99.90
22235;DHT22;11286;45.596;5.284;2023-02-01T00:56:13;7.40;99.90
22235;DHT22;11286;45.596;5.284;2023-02-01T00:58:39;7.50;99.90
22235;DHT22;11286;45.596;5.284;2023-02-01T01:01:11;7.20;99.90
22235;DHT22;11286;45.596;5.284;2023-02-01T01:03:39;7.10;99.90
22235;DHT22;11286;45.596;5.284;2023-02-01T01:06:08;7.30;99.90
22235;DHT22;11286;45.596;5.284;2023-02-01T01:08:35;7.50;99.90
22235;DHT22;11286;45.596;5.284;2023-02-01T01:11:15;7.40;99.90
22235;DHT22;11286;45.596;5.284;2023-02-01T01:13:41;7.20;99.90
22235;DHT22;11286;45.596;5.284;2023-02-01T01:16:09;7.20;99.90
22235;DHT22;11286;45.596;5.284;2023-02-01T01:18:35;7.20;99.90
22235;DHT22;11286;45.596;5.284;2023-02-01T01:21:03;7.00;99.90
22235;DHT22;11286;45.596;5.284;2023-02-01T01:23:29;7.00;99.90
22235;DHT22;11286;45.596;5.284;2023-02-01T01:25:54;7.00;99.90
22235;DHT22;11286;45.596;5.284;2023-02-01T01:28:20;7.10;99.90
22235;DHT22;11286;45.596;5.284;2023-02-01T01:30:46;7.00;99.90
22235;DHT22;11286;45.596;5.284;2023-02-01T01:33:12;7.00;99.90
22235;DHT22;11286;45.596;5.284;2023-02-01T01:35:38;6.90;99.90
22235;DHT22;11286;45.596;5.284;2023-02-01T01:38:04;6.80;99.90
22235;DHT22;11286;45.596;5.284;2023-02-01T01:40:30;6.80;99.90
22235;DHT22;11286;45.596;5.284;2023-02-01T01:42:57;6.90;99.90
22235;DHT22;11286;45.596;5.284;2023-02-01T01:45:31;6.90;99.90
22235;DHT22;11286;45.596;5.284;2023-02-01T01:48:11;6.80;99.90
22235;DHT22;11286;45.596;5.284;2023-02-01T01:50:48;6.90;99.90
22235;DHT22;11286;45.596;5.284;2023-02-01T01:53:19;6.90;99.90
22235;DHT22;11286;45.596;5.284;2023-02-01T01:55:47;6.90;99.90
22235;DHT22;11286;45.596;5.284;2023-02-01T01:58:18;7.00;99.90
22235;DHT22;11286;45.596;5.284;2023-02-01T02:00:46;6.90;99.90
22235;DHT22;11286;45.596;5.284;2023-02-01T02:03:14;6.90;99.90
22235;DHT22;11286;45.596;5.284;2023-02-01T02:05:41;6.80;99.90
22235;DHT22;11286;45.596;5.284;2023-02-01T02:08:06;6.60;99.90
22235;DHT22;11286;45.596;5.284;2023-02-01T02:10:32;6.60;99.90
22235;DHT22;11286;45.596;5.284;2023-02-01T02:13:18;6.70;99.90
22235;DHT22;11286;45.596;5.284;2023-02-01T02:24:40;6.70;99.90
22235;DHT22;11286;45.596;5.284;2023-02-01T02:36:13;6.60;99.90
22235;DHT22;11286;45.596;5.284;2023-02-01T02:38:45;6.60;99.90
22235;DHT22;11286;45.596;5.284;2023-02-01T02:41:24;6.60;99.90
22235;DHT22;11286;45.596;5.284;2023-02-01T02:44:23;6.60;99.90
22235;DHT22;11286;45.596;5.284;2023-02-01T02:47:21;6.50;99.90
22235;DHT22;11286;45.596;5.284;2023-02-01T02:50:57;6.40;99.90
22235;DHT22;11286;45.596;5.284;2023-02-01T02:53:17;6.50;99.90
22235;DHT22;11286;45.596;5.284;2023-02-01T02:56:06;6.60;99.90
22235;DHT22;11286;45.596;5.284;2023-02-01T02:58:51;6.40;99.90
22235;DHT22;11286;45.596;5.284;2023-02-01T03:01:38;6.50;99.90
22235;DHT22;11286;45.596;5.284;2023-02-01T03:04:22;6.50;99.90
22235;DHT22;11286;45.596;5.284;2023-02-01T03:06:49;6.50;99.90
22235;DHT22;11286;45.596;5.284;2023-02-01T03:09:35;6.60;99.90
22235;DHT22;11286;45.596;5.284;2023-02-01T03:12:07;6.50;99.90
22235;DHT22;11286;45.596;5.284;2023-02-01T03:14:59;6.40;99.90
22235;DHT22;11286;45.596;5.284;2023-02-01T03:17:31;6.50;99.90
22235;DHT22;11286;45.596;5.284;2023-02-01T03:20:00;6.60;99.90
22235;DHT22;11286;45.596;5.284;2023-02-01T03:22:28;6.70;99.90
22235;DHT22;11286;45.596;5.284;2023-02-01T03:25:04;6.80;99.90
22235;DHT22;11286;45.596;5.284;2023-02-01T03:27:35;6.70;99.90
22235;DHT22;11286;45.596;5.284;2023-02-01T03:32:43;6.70;99.90
22235;DHT22;11286;45.596;5.284;2023-02-01T03:35:58;6.60;99.90
22235;DHT22;11286;45.596;5.284;2023-02-01T03:38:48;6.70;99.90
22235;DHT22;11286;45.596;5.284;2023-02-01T03:46:22;6.50;99.90
22235;DHT22;11286;45.596;5.284;2023-02-01T03:48:50;6.60;99.90
22235;DHT22;11286;45.596;5.284;2023-02-01T03:51:17;6.50;99.90
22235;DHT22;11286;45.596;5.284;2023-02-01T03:53:45;6.50;99.90
22235;DHT22;11286;45.596;5.284;2023-02-01T03:56:15;6.50;99.90
22235;DHT22;11286;45.596;5.284;2023-02-01T03:58:42;6.50;99.90
22235;DHT22;11286;45.596;5.284;2023-02-01T04:01:23;6.50;99.90
22235;DHT22;11286;45.596;5.284;2023-02-01T04:03:48;6.40;99.90
22235;DHT22;11286;45.596;5.284;2023-02-01T04:06:16;6.50;99.90
22235;DHT22;11286;45.596;5.284;2023-02-01T04:08:42;6.60;99.90
22235;DHT22;11286;45.596;5.284;2023-02-01T04:11:08;6.60;99.90
22235;DHT22;11286;45.596;5.284;2023-02-01T04:13:33;6.60;99.90
22235;DHT22;11286;45.596;5.284;2023-02-01T04:15:59;6.60;99.90
22235;DHT22;11286;45.596;5.284;2023-02-01T04:18:24;6.50;99.90
22235;DHT22;11286;45.596;5.284;2023-02-01T04:20:50;6.70;99.90
22235;DHT22;11286;45.596;5.284;2023-02-01T04:23:16;6.60;99.90
22235;DHT22;11286;45.596;5.284;2023-02-01T04:25:41;6.60;99.90
22235;DHT22;11286;45.596;5.284;2023-02-01T04:28:07;6.80;99.90
22235;DHT22;11286;45.596;5.284;2023-02-01T04:30:33;6.70;99.90
22235;DHT22;11286;45.596;5.284;2023-02-01T04:32:58;6.60;99.90
22235;DHT22;11286;45.596;5.284;2023-02-01T04:35:24;6.50;99.90
22235;DHT22;11286;45.596;5.284;2023-02-01T04:37:50;6.50;99.90
22235;DHT22;11286;45.596;5.284;2023-02-01T04:40:15;6.60;99.90
22235;DHT22;11286;45.596;5.284;2023-02-01T04:42:41;6.60;99.90
22235;DHT22;11286;45.596;5.284;2023-02-01T04:45:07;6.60;99.90
22235;DHT22;11286;45.596;5.284;2023-02-01T04:47:34;6.60;99.90
22235;DHT22;11286;45.596;5.284;2023-02-01T04:50:00;6.80;99.90
22235;DHT22;11286;45.596;5.284;2023-02-01T04:52:25;6.70;99.90
22235;DHT22;11286;45.596;5.284;2023-02-01T04:54:52;6.70;99.90
22235;DHT22;11286;45.596;5.284;2023-02-01T04:57:19;6.70;99.90
22235;DHT22;11286;45.596;5.284;2023-02-01T04:59:45;6.60;99.90
22235;DHT22;11286;45.596;5.284;2023-02-01T05:02:11;6.60;99.90
22235;DHT22;11286;45.596;5.284;2023-02-01T05:04:36;6.60;99.90
22235;DHT22;11286;45.596;5.284;2023-02-01T05:07:02;6.70;99.90
22235;DHT22;11286;45.596;5.284;2023-02-01T05:09:28;6.60;99.90
22235;DHT22;11286;45.596;5.284;2023-02-01T05:11:53;6.60;99.90
22235;DHT22;11286;45.596;5.284;2023-02-01T05:14:37;6.70;99.90
22235;DHT22;11286;45.596;5.284;2023-02-01T05:17:03;6.70;99.90
22235;DHT22;11286;45.596;5.284;2023-02-01T05:19:29;6.60;99.90
22235;DHT22;11286;45.596;5.284;2023-02-01T05:21:54;6.60;99.90
22235;DHT22;11286;45.596;5.284;2023-02-01T05:24:20;6.60;99.90
22235;DHT22;11286;45.596;5.284;2023-02-01T05:26:47;6.70;99.90
22235;DHT22;11286;45.596;5.284;2023-02-01T05:29:13;6.60;99.90
22235;DHT22;11286;45.596;5.284;2023-02-01T05:31:39;6.70;99.90
22235;DHT22;11286;45.596;5.284;2023-02-01T05:34:06;6.50;99.90
22235;DHT22;11286;45.596;5.284;2023-02-01T05:36:32;6.50;99.90
22235;DHT22;11286;45.596;5.284;2023-02-01T05:38:57;6.60;99.90
22235;DHT22;11286;45.596;5.284;2023-02-01T05:41:23;6.60;99.90
22235;DHT22;11286;45.596;5.284;2023-02-01T05:43:49;6.70;99.90
22235;DHT22;11286;45.596;5.284;2023-02-01T05:46:15;6.60;99.90
22235;DHT22;11286;45.596;5.284;2023-02-01T05:48:41;6.70;99.90
22235;DHT22;11286;45.596;5.284;2023-02-01T05:51:07;6.70;99.90
22235;DHT22;11286;45.596;5.284;2023-02-01T05:53:33;6.70;99.90
22235;DHT22;11286;45.596;5.284;2023-02-01T05:55:58;6.70;99.90
22235;DHT22;11286;45.596;5.284;2023-02-01T05:58:24;6.70;99.90
22235;DHT22;11286;45.596;5.284;2023-02-01T06:00:50;6.70;99.90
22235;DHT22;11286;45.596;5.284;2023-02-01T06:03:16;6.60;99.90
22235;DHT22;11286;45.596;5.284;2023-02-01T06:05:46;6.70;99.90
22235;DHT22;11286;45.596;5.284;2023-02-01T06:08:13;6.80;99.90
22235;DHT22;11286;45.596;5.284;2023-02-01T06:10:39;6.70;99.90
22235;DHT22;11286;45.596;5.284;2023-02-01T06:13:04;6.80;99.90
22235;DHT22;11286;45.596;5.284;2023-02-01T06:15:30;6.70;99.90
22235;DHT22;11286;45.596;5.284;2023-02-01T06:17:57;6.60;99.90
22235;DHT22;11286;45.596;5.284;2023-02-01T06:20:23;6.70;99.90
22235;DHT22;11286;45.596;5.284;2023-02-01T06:22:48;6.70;99.90
22235;DHT22;11286;45.596;5.284;2023-02-01T06:25:14;6.70;99.90
22235;DHT22;11286;45.596;5.284;2023-02-01T06:27:40;6.70;99.90
22235;DHT22;11286;45.596;5.284;2023-02-01T06:30:06;6.60;99.90
22235;DHT22;11286;45.596;5.284;2023-02-01T06:32:32;6.60;99.90
22235;DHT22;11286;45.596;5.284;2023-02-01T06:34:58;6.70;99.90
22235;DHT22;11286;45.596;5.284;2023-02-01T06:37:25;6.70;99.90
22235;DHT22;11286;45.596;5.284;2023-02-01T06:39:51;6.70;99.90
22235;DHT22;11286;45.596;5.284;2023-02-01T06:42:17;6.80;99.90
22235;DHT22;11286;45.596;5.284;2023-02-01T06:44:43;6.80;99.90
22235;DHT22;11286;45.596;5.284;2023-02-01T06:47:08;6.90;99.90
22235;DHT22;11286;45.596;5.284;2023-02-01T06:49:34;6.70;99.90
22235;DHT22;11286;45.596;5.284;2023-02-01T06:52:00;6.70;99.90
22235;DHT22;11286;45.596;5.284;2023-02-01T06:54:26;6.70;99.90
22235;DHT22;11286;45.596;5.284;2023-02-01T06:56:52;6.70;99.90
22235;DHT22;11286;45.596;5.284;2023-02-01T06:59:18;6.80;99.90
22235;DHT22;11286;45.596;5.284;2023-02-01T07:01:43;6.60;99.90
22235;DHT22;11286;45.596;5.284;2023-02-01T07:04:11;6.70;99.90
22235;DHT22;11286;45.596;5.284;2023-02-01T07:06:37;6.60;99.90
22235;DHT22;11286;45.596;5.284;2023-02-01T07:09:03;6.70;99.90
22235;DHT22;11286;45.596;5.284;2023-02-01T07:11:29;6.70;99.90
22235;DHT22;11286;45.596;5.284;2023-02-01T07:13:56;6.80;99.90
22235;DHT22;11286;45.596;5.284;2023-02-01T07:16:21;6.60;99.90
22235;DHT22;11286;45.596;5.284;2023-02-01T07:18:49;6.70;99.90
22235;DHT22;11286;45.596;5.284;2023-02-01T07:21:15;6.90;99.90
22235;DHT22;11286;45.596;5.284;2023-02-01T07:23:41;6.90;99.90
22235;DHT22;11286;45.596;5.284;2023-02-01T07:26:09;6.90;99.90
22235;DHT22;11286;45.596;5.284;2023-02-01T07:28:35;7.00;99.90
22235;DHT22;11286;45.596;5.284;2023-02-01T07:31:06;6.80;99.90
22235;DHT22;11286;45.596;5.284;2023-02-01T07:33:32;6.90;99.90
22235;DHT22;11286;45.596;5.284;2023-02-01T07:35:57;6.90;99.90
22235;DHT22;11286;45.596;5.284;2023-02-01T07:38:25;6.90;99.90
22235;DHT22;11286;45.596;5.284;2023-02-01T07:40:59;7.30;99.90
22235;DHT22;11286;45.596;5.284;2023-02-01T07:43:26;7.30;99.90
22235;DHT22;11286;45.596;5.284;2023-02-01T07:45:53;7.20;99.90
22235;DHT22;11286;45.596;5.284;2023-02-01T07:48:20;7.40;99.90
22235;DHT22;11286;45.596;5.284;2023-02-01T07:50:45;7.30;99.90
22235;DHT22;11286;45.596;5.284;2023-02-01T07:53:11;7.30;99.90
22235;DHT22;11286;45.596;5.284;2023-02-01T07:55:40;7.20;99.90
22235;DHT22;11286;45.596;5.284;2023-02-01T07:58:06;7.00;99.90
22235;DHT22;11286;45.596;5.284;2023-02-01T08:00:31;7.20;99.90
22235;DHT22;11286;45.596;5.284;2023-02-01T08:03:27;6.90;99.90
22235;DHT22;11286;45.596;5.284;2023-02-01T08:05:55;7.10;99.90
22235;DHT22;11286;45.596;5.284;2023-02-01T08:08:22;6.60;99.90
22235;DHT22;11286;45.596;5.284;2023-02-01T08:10:47;6.60;99.90
22235;DHT22;11286;45.596;5.284;2023-02-01T08:13:13;6.60;99.90
22235;DHT22;11286;45.596;5.284;2023-02-01T08:15:39;6.70;99.90
22235;DHT22;11286;45.596;5.284;2023-02-01T08:18:05;6.80;99.90
22235;DHT22;11286;45.596;5.284;2023-02-01T08:20:31;7.10;99.90
22235;DHT22;11286;45.596;5.284;2023-02-01T08:22:57;7.00;99.90
22235;DHT22;11286;45.596;5.284;2023-02-01T08:25:23;8.00;99.90
22235;DHT22;11286;45.596;5.284;2023-02-01T08:27:49;8.80;99.90
22235;DHT22;11286;45.596;5.284;2023-02-01T08:30:16;11.90;99.90
22235;DHT22;11286;45.596;5.284;2023-02-01T08:32:41;14.70;99.90
22235;DHT22;11286;45.596;5.284;2023-02-01T08:35:07;16.20;99.90
22235;DHT22;11286;45.596;5.284;2023-02-01T08:37:33;17.80;99.90
22235;DHT22;11286;45.596;5.284;2023-02-01T08:39:59;18.60;99.90
22235;DHT22;11286;45.596;5.284;2023-02-01T08:42:25;16.80;99.90
22235;DHT22;11286;45.596;5.284;2023-02-01T08:45:09;12.90;99.90
22235;DHT22;11286;45.596;5.284;2023-02-01T08:47:35;10.40;99.90
22235;DHT22;11286;45.596;5.284;2023-02-01T08:50:01;9.10;99.90
22235;DHT22;11286;45.596;5.284;2023-02-01T08:52:27;8.50;99.90
22235;DHT22;11286;45.596;5.284;2023-02-01T08:54:52;8.30;99.90
22235;DHT22;11286;45.596;5.284;2023-02-01T08:57:18;7.90;99.90
22235;DHT22;11286;45.596;5.284;2023-02-01T08:59:44;7.70;99.90
22235;DHT22;11286;45.596;5.284;2023-02-01T09:02:14;7.90;99.90
22235;DHT22;11286;45.596;5.284;2023-02-01T09:04:41;7.90;99.90
22235;DHT22;11286;45.596;5.284;2023-02-01T09:07:08;7.60;99.90
22235;DHT22;11286;45.596;5.284;2023-02-01T09:09:35;7.70;99.90
22235;DHT22;11286;45.596;5.284;2023-02-01T09:12:01;7.70;99.90
22235;DHT22;11286;45.596;5.284;2023-02-01T09:14:27;8.00;99.90
22235;DHT22;11286;45.596;5.284;2023-02-01T09:16:53;7.90;99.90
22235;DHT22;11286;45.596;5.284;2023-02-01T09:19:19;7.80;99.90
22235;DHT22;11286;45.596;5.284;2023-02-01T09:21:44;7.90;99.90
22235;DHT22;11286;45.596;5.284;2023-02-01T09:24:10;8.10;99.90
22235;DHT22;11286;45.596;5.284;2023-02-01T09:26:37;8.10;99.90
22235;DHT22;11286;45.596;5.284;2023-02-01T09:29:03;8.40;99.90
22235;DHT22;11286;45.596;5.284;2023-02-01T09:31:31;8.40;99.90
22235;DHT22;11286;45.596;5.284;2023-02-01T09:33:57;8.20;99.90
22235;DHT22;11286;45.596;5.284;2023-02-01T09:36:23;8.40;99.90
22235;DHT22;11286;45.596;5.284;2023-02-01T09:38:49;8.40;99.90
22235;DHT22;11286;45.596;5.284;2023-02-01T09:41:48;8.20;99.90
22235;DHT22;11286;45.596;5.284;2023-02-01T09:47:21;8.20;99.90
22235;DHT22;11286;45.596;5.284;2023-02-01T09:50:17;8.20;99.90
22235;DHT22;11286;45.596;5.284;2023-02-01T09:53:09;8.10;99.90
22235;DHT22;11286;45.596;5.284;2023-02-01T09:55:48;8.00;99.90
22235;DHT22;11286;45.596;5.284;2023-02-01T10:00:54;8.00;99.90
22235;DHT22;11286;45.596;5.284;2023-02-01T10:03:21;7.80;99.90
22235;DHT22;11286;45.596;5.284;2023-02-01T10:11:38;8.20;99.90
22235;DHT22;11286;45.596;5.284;2023-02-01T10:23:06;8.30;99.90
22235;DHT22;11286;45.596;5.284;2023-02-01T10:26:22;8.60;99.90
22235;DHT22;11286;45.596;5.284;2023-02-01T10:28:23;8.70;99.90
22235;DHT22;11286;45.596;5.284;2023-02-01T10:30:53;8.50;99.90
22235;DHT22;11286;45.596;5.284;2023-02-01T10:33:41;8.50;99.90
22235;DHT22;11286;45.596;5.284;2023-02-01T10:39:12;8.40;99.90
22235;DHT22;11286;45.596;5.284;2023-02-01T10:41:40;8.50;99.90
22235;DHT22;11286;45.596;5.284;2023-02-01T10:44:13;8.60;99.90
22235;DHT22;11286;45.596;5.284;2023-02-01T10:46:39;8.40;99.90
22235;DHT22;11286;45.596;5.284;2023-02-01T10:49:12;8.30;99.90
22235;DHT22;11286;45.596;5.284;2023-02-01T10:51:55;8.30;99.90
22235;DHT22;11286;45.596;5.284;2023-02-01T10:54:37;8.40;99.90
22235;DHT22;11286;45.596;5.284;2023-02-01T10:57:21;8.60;99.90
22235;DHT22;11286;45.596;5.284;2023-02-01T10:59:47;8.60;99.90
22235;DHT22;11286;45.596;5.284;2023-02-01T11:02:33;8.70;99.90
22235;DHT22;11286;45.596;5.284;2023-02-01T11:05:02;9.00;99.90
22235;DHT22;11286;45.596;5.284;2023-02-01T11:07:29;9.20;99.90
22235;DHT22;11286;45.596;5.284;2023-02-01T11:09:55;9.10;99.90
22235;DHT22;11286;45.596;5.284;2023-02-01T11:12:37;9.00;99.90
22235;DHT22;11286;45.596;5.284;2023-02-01T11:15:13;9.20;99.90
22235;DHT22;11286;45.596;5.284;2023-02-01T11:17:43;9.30;99.90
22235;DHT22;11286;45.596;5.284;2023-02-01T11:20:16;9.70;99.90
22235;DHT22;11286;45.596;5.284;2023-02-01T11:22:48;9.90;99.90
22235;DHT22;11286;45.596;5.284;2023-02-01T11:25:16;9.60;99.90
22235;DHT22;11286;45.596;5.284;2023-02-01T11:27:43;9.90;99.90
22235;DHT22;11286;45.596;5.284;2023-02-01T11:30:19;9.80;99.90
22235;DHT22;11286;45.596;5.284;2023-02-01T11:32:48;9.90;99.90
22235;DHT22;11286;45.596;5.284;2023-02-01T11:35:20;10.10;99.90
22235;DHT22;11286;45.596;5.284;2023-02-01T11:37:53;10.40;99.90
22235;DHT22;11286;45.596;5.284;2023-02-01T11:43:00;11.30;99.90
22235;DHT22;11286;45.596;5.284;2023-02-01T11:45:27;11.30;99.90
22235;DHT22;11286;45.596;5.284;2023-02-01T11:47:55;11.10;99.90
22235;DHT22;11286;45.596;5.284;2023-02-01T12:01:25;10.20;99.90
22235;DHT22;11286;45.596;5.284;2023-02-01T12:12:37;9.80;99.90
22235;DHT22;11286;45.596;5.284;2023-02-01T12:17:40;9.60;99.90
22235;DHT22;11286;45.596;5.284;2023-02-01T12:23:06;9.70;99.90
22235;DHT22;11286;45.596;5.284;2023-02-01T12:38:51;9.40;99.90
22235;DHT22;11286;45.596;5.284;2023-02-01T12:41:39;9.50;99.90
22235;DHT22;11286;45.596;5.284;2023-02-01T12:44:22;9.60;99.90
22235;DHT22;11286;45.596;5.284;2023-02-01T12:52:23;9.90;99.90
22235;DHT22;11286;45.596;5.284;2023-02-01T12:55:36;10.00;99.90
22235;DHT22;11286;45.596;5.284;2023-02-01T12:58:17;9.80;99.90
22235;DHT22;11286;45.596;5.284;2023-02-01T13:00:51;9.80;99.90
22235;DHT22;11286;45.596;5.284;2023-02-01T13:06:50;10.00;99.90
22235;DHT22;11286;45.596;5.284;2023-02-01T13:11:47;9.70;99.90
22235;DHT22;11286;45.596;5.284;2023-02-01T13:14:30;9.70;99.90
22235;DHT22;11286;45.596;5.284;2023-02-01T13:17:05;9.90;99.90
22235;DHT22;11286;45.596;5.284;2023-02-01T13:22:28;10.90;99.90
22235;DHT22;11286;45.596;5.284;2023-02-01T13:25:04;10.70;99.90
22235;DHT22;11286;45.596;5.284;2023-02-01T13:27:31;10.70;99.90
22235;DHT22;11286;45.596;5.284;2023-02-01T13:30:01;10.50;99.90
22235;DHT22;11286;45.596;5.284;2023-02-01T13:43:26;14.20;99.90
22235;DHT22;11286;45.596;5.284;2023-02-01T13:45:56;15.00;99.90
22235;DHT22;11286;45.596;5.284;2023-02-01T13:51:07;16.20;99.90
22235;DHT22;11286;45.596;5.284;2023-02-01T13:53:37;15.30;99.90
22235;DHT22;11286;45.596;5.284;2023-02-01T13:56:15;13.90;99.90
22235;DHT22;11286;45.596;5.284;2023-02-01T13:58:43;12.80;99.90
22235;DHT22;11286;45.596;5.284;2023-02-01T14:03:48;11.90;99.90
22235;DHT22;11286;45.596;5.284;2023-02-01T14:16:44;12.60;99.90
22235;DHT22;11286;45.596;5.284;2023-02-01T14:19:31;13.70;99.90
22235;DHT22;11286;45.596;5.284;2023-02-01T14:22:00;14.80;99.90
22235;DHT22;11286;45.596;5.284;2023-02-01T14:29:40;16.40;99.90
22235;DHT22;11286;45.596;5.284;2023-02-01T14:32:18;16.60;99.90
22235;DHT22;11286;45.596;5.284;2023-02-01T14:44:53;16.30;99.90
22235;DHT22;11286;45.596;5.284;2023-02-01T14:50:03;15.50;99.90
22235;DHT22;11286;45.596;5.284;2023-02-01T14:52:44;14.70;99.90
22235;DHT22;11286;45.596;5.284;2023-02-01T14:55:24;13.70;99.90
22235;DHT22;11286;45.596;5.284;2023-02-01T14:57:53;13.10;99.90
22235;DHT22;11286;45.596;5.284;2023-02-01T15:00:24;13.20;99.90
22235;DHT22;11286;45.596;5.284;2023-02-01T15:02:51;13.00;99.90
22235;DHT22;11286;45.596;5.284;2023-02-01T15:05:32;12.70;99.90
22235;DHT22;11286;45.596;5.284;2023-02-01T15:08:21;12.70;99.90
22235;DHT22;11286;45.596;5.284;2023-02-01T15:10:50;12.50;99.90
22235;DHT22;11286;45.596;5.284;2023-02-01T15:13:23;13.10;99.90
22235;DHT22;11286;45.596;5.284;2023-02-01T15:16:11;13.90;99.90
22235;DHT22;11286;45.596;5.284;2023-02-01T15:18:37;14.70;99.90
22235;DHT22;11286;45.596;5.284;2023-02-01T15:21:04;14.40;99.90
22235;DHT22;11286;45.596;5.284;2023-02-01T15:23:31;14.50;99.90
22235;DHT22;11286;45.596;5.284;2023-02-01T15:25:57;14.50;99.90
22235;DHT22;11286;45.596;5.284;2023-02-01T15:28:25;14.50;99.90
22235;DHT22;11286;45.596;5.284;2023-02-01T15:30:58;14.60;99.90
22235;DHT22;11286;45.596;5.284;2023-02-01T15:33:25;14.60;99.90
22235;DHT22;11286;45.596;5.284;2023-02-01T15:36:09;14.80;99.90
22235;DHT22;11286;45.596;5.284;2023-02-01T15:43:34;13.40;99.90
22235;DHT22;11286;45.596;5.284;2023-02-01T15:46:03;12.90;99.90
22235;DHT22;11286;45.596;5.284;2023-02-01T15:48:45;12.40;99.90
22235;DHT22;11286;45.596;5.284;2023-02-01T15:51:23;12.00;99.90
22235;DHT22;11286;45.596;5.284;2023-02-01T15:54:02;11.60;99.90
22235;DHT22;11286;45.596;5.284;2023-02-01T15:56:33;11.20;99.90
22235;DHT22;11286;45.596;5.284;2023-02-01T15:59:02;11.20;99.90
22235;DHT22;11286;45.596;5.284;2023-02-01T16:01:30;11.10;99.90
22235;DHT22;11286;45.596;5.284;2023-02-01T16:06:49;10.80;99.90
22235;DHT22;11286;45.596;5.284;2023-02-01T16:09:16;10.70;99.90
22235;DHT22;11286;45.596;5.284;2023-02-01T16:12:00;10.60;99.90
22235;DHT22;11286;45.596;5.284;2023-02-01T16:14:26;10.70;99.90
22235;DHT22;11286;45.596;5.284;2023-02-01T16:16:54;10.70;99.90
22235;DHT22;11286;45.596;5.284;2023-02-01T16:19:20;10.60;99.90
22235;DHT22;11286;45.596;5.284;2023-02-01T16:21:46;10.30;99.90
22235;DHT22;11286;45.596;5.284;2023-02-01T16:24:12;10.20;99.90
22235;DHT22;11286;45.596;5.284;2023-02-01T16:26:38;10.10;99.90
22235;DHT22;11286;45.596;5.284;2023-02-01T16:29:04;10.20;99.90
22235;DHT22;11286;45.596;5.284;2023-02-01T16:31:36;10.10;99.90
22235;DHT22;11286;45.596;5.284;2023-02-01T16:34:03;9.90;99.90
22235;DHT22;11286;45.596;5.284;2023-02-01T16:36:31;9.90;99.90
22235;DHT22;11286;45.596;5.284;2023-02-01T16:38:57;9.90;99.90
22235;DHT22;11286;45.596;5.284;2023-02-01T16:41:23;10.00;99.90
22235;DHT22;11286;45.596;5.284;2023-02-01T16:43:51;10.00;99.90
22235;DHT22;11286;45.596;5.284;2023-02-01T16:46:19;9.90;99.90
22235;DHT22;11286;45.596;5.284;2023-02-01T16:48:56;9.90;99.90
22235;DHT22;11286;45.596;5.284;2023-02-01T16:51:24;9.80;99.90
22235;DHT22;11286;45.596;5.284;2023-02-01T16:53:51;9.90;99.90
22235;DHT22;11286;45.596;5.284;2023-02-01T16:56:20;9.80;99.90
22235;DHT22;11286;45.596;5.284;2023-02-01T16:58:46;9.80;99.90
22235;DHT22;11286;45.596;5.284;2023-02-01T17:01:13;9.90;99.90
22235;DHT22;11286;45.596;5.284;2023-02-01T17:03:39;9.90;99.90
22235;DHT22;11286;45.596;5.284;2023-02-01T17:06:07;9.90;99.90
22235;DHT22;11286;45.596;5.284;2023-02-01T17:08:37;9.80;99.90
22235;DHT22;11286;45.596;5.284;2023-02-01T17:11:05;9.70;99.90
22235;DHT22;11286;45.596;5.284;2023-02-01T17:13:31;9.70;99.90
22235;DHT22;11286;45.596;5.284;2023-02-01T17:16:02;9.80;99.90
22235;DHT22;11286;45.596;5.284;2023-02-01T17:18:31;9.70;99.90
22235;DHT22;11286;45.596;5.284;2023-02-01T17:20:59;9.70;99.90
22235;DHT22;11286;45.596;5.284;2023-02-01T17:23:26;9.80;99.90
22235;DHT22;11286;45.596;5.284;2023-02-01T17:25:52;9.70;99.90
22235;DHT22;11286;45.596;5.284;2023-02-01T17:28:18;9.70;99.90
22235;DHT22;11286;45.596;5.284;2023-02-01T17:30:43;9.60;99.90
22235;DHT22;11286;45.596;5.284;2023-02-01T17:33:24;9.60;99.90
22235;DHT22;11286;45.596;5.284;2023-02-01T17:35:51;9.50;99.90
22235;DHT22;11286;45.596;5.284;2023-02-01T17:38:17;9.50;99.90
22235;DHT22;11286;45.596;5.284;2023-02-01T17:40:43;9.50;99.90
22235;DHT22;11286;45.596;5.284;2023-02-01T17:43:18;9.40;99.90
22235;DHT22;11286;45.596;5.284;2023-02-01T17:45:49;9.50;99.90
22235;DHT22;11286;45.596;5.284;2023-02-01T17:48:21;9.50;99.90
22235;DHT22;11286;45.596;5.284;2023-02-01T17:50:48;9.50;99.90
22235;DHT22;11286;45.596;5.284;2023-02-01T17:53:24;9.50;99.90
22235;DHT22;11286;45.596;5.284;2023-02-01T17:55:50;9.50;99.90
22235;DHT22;11286;45.596;5.284;2023-02-01T17:58:16;9.50;99.90
22235;DHT22;11286;45.596;5.284;2023-02-01T18:00:43;9.40;99.90
22235;DHT22;11286;45.596;5.284;2023-02-01T18:05:49;9.30;99.90
22235;DHT22;11286;45.596;5.284;2023-02-01T18:08:18;9.40;99.90
22235;DHT22;11286;45.596;5.284;2023-02-01T18:10:56;9.40;99.90
22235;DHT22;11286;45.596;5.284;2023-02-01T18:13:29;9.40;99.90
22235;DHT22;11286;45.596;5.284;2023-02-01T18:15:55;9.30;99.90
22235;DHT22;11286;45.596;5.284;2023-02-01T18:18:23;9.30;99.90
22235;DHT22;11286;45.596;5.284;2023-02-01T18:20:49;9.40;99.90
22235;DHT22;11286;45.596;5.284;2023-02-01T18:23:17;9.40;99.90
22235;DHT22;11286;45.596;5.284;2023-02-01T18:25:43;9.30;99.90
22235;DHT22;11286;45.596;5.284;2023-02-01T18:28:14;9.40;99.90
22235;DHT22;11286;45.596;5.284;2023-02-01T18:30:42;9.20;99.90
22235;DHT22;11286;45.596;5.284;2023-02-01T18:33:10;9.30;99.90
22235;DHT22;11286;45.596;5.284;2023-02-01T18:35:36;9.40;99.90
22235;DHT22;11286;45.596;5.284;2023-02-01T18:38:02;9.40;99.90
22235;DHT22;11286;45.596;5.284;2023-02-01T18:40:41;9.50;99.90